Tuesday, August 21, 2018, 12:04 AM GMT
Back to Local

CWPD, Parc Des Laurentid

Location: , , Canada Lat: 47.567
Local Time: 12:04 AM GMT ( 0:04 GMT) Lon: -71.233
Time Zone: GMT Elev: 2634 ft

Show me the last for .
Show Coded

Time T Td Feel RH Dir Speed Gust Alt SLP Vis Weather Sky Remarks
2018-08-20 23:00 66 52 - 61 220° 3 - - 30.10 0 None
2018-08-20 22:00 67 51 - 55 220° 6 - - 30.09 0 None
2018-08-20 21:00 72 50 76 45 220° 5 - - 30.09 0 None
2018-08-20 20:00 73 48 76 41 180° 3 - - 30.09 0 None
2018-08-20 19:00 72 46 - 38 190° 5 - - 30.09 0 None
2018-08-20 18:00 70 48 75 45 200° 1 - - 30.11 0 None
2018-08-20 17:00 70 49 76 47 190° 5 - - 30.12 0 None
2018-08-20 16:00 69 48 - 48 80° 2 - - 30.13 0 None
2018-08-20 15:00 70 52 - 53 70° 1 - - 30.13 0 None
2018-08-20 14:00 67 49 - 53 170° 2 - - 30.13 0 None
2018-08-20 13:00 63 54 - 73 170° 5 - - 30.14 0 None
2018-08-20 12:00 56 53 - 87 190° 3 - - 30.15 0 None
2018-08-20 11:00 46 44 - 95 200° 2 - - 30.16 0 None
2018-08-20 10:00 42 40 39 95 210° 5 - - 30.16 0 None
2018-08-20 09:00 41 40 39 95 200° 3 - - 30.15 0 None
2018-08-20 08:00 41 39 39 94 210° 3 - - 30.15 0 None
2018-08-20 07:00 42 38 40 88 200° 3 - - 30.14 0 None
2018-08-20 06:00 43 41 40 93 200° 5 - - 30.14 0 None
2018-08-20 05:00 44 42 42 92 210° 3 - - 30.13 0 None
2018-08-20 04:00 46 43 44 90 210° 3 - - 30.13 0 None
2018-08-20 03:00 49 45 48 88 210° 3 - - 30.11 0 None
2018-08-20 02:00 49 46 - 90 170° 2 - - 30.10 0 None
2018-08-20 01:00 54 49 - 84 180° 1 - - 30.11 0 None

Support USWX by starting your Amazon purchase here.